sensor_id;sensor_type;location;lat;lon;timestamp;P1;durP1;ratioP1;P2;durP2;ratioP2
76021;SDS011;64718;52.124;6.226;2022-12-07T00:01:30;22.35;;;12.63;;
76021;SDS011;64718;52.124;6.226;2022-12-07T00:03:58;25.25;;;12.55;;
76021;SDS011;64718;52.124;6.226;2022-12-07T00:06:29;21.10;;;12.90;;
76021;SDS011;64718;52.124;6.226;2022-12-07T00:08:56;21.25;;;12.23;;
76021;SDS011;64718;52.124;6.226;2022-12-07T00:11:24;20.70;;;11.93;;
76021;SDS011;64718;52.124;6.226;2022-12-07T00:13:51;15.70;;;10.98;;
76021;SDS011;64718;52.124;6.226;2022-12-07T00:16:20;18.13;;;11.13;;
76021;SDS011;64718;52.124;6.226;2022-12-07T00:18:48;14.73;;;10.05;;
76021;SDS011;64718;52.124;6.226;2022-12-07T00:21:16;16.02;;;10.70;;
76021;SDS011;64718;52.124;6.226;2022-12-07T00:23:44;17.45;;;9.90;;
76021;SDS011;64718;52.124;6.226;2022-12-07T00:26:14;16.92;;;9.00;;
76021;SDS011;64718;52.124;6.226;2022-12-07T00:28:45;13.52;;;8.00;;
76021;SDS011;64718;52.124;6.226;2022-12-07T00:31:13;16.30;;;8.10;;
76021;SDS011;64718;52.124;6.226;2022-12-07T00:33:41;11.75;;;7.30;;
76021;SDS011;64718;52.124;6.226;2022-12-07T00:36:08;11.25;;;7.53;;
76021;SDS011;64718;52.124;6.226;2022-12-07T00:38:36;15.32;;;8.45;;
76021;SDS011;64718;52.124;6.226;2022-12-07T00:41:05;13.60;;;7.65;;
76021;SDS011;64718;52.124;6.226;2022-12-07T00:43:33;14.88;;;8.15;;
76021;SDS011;64718;52.124;6.226;2022-12-07T00:46:01;18.55;;;9.05;;
76021;SDS011;64718;52.124;6.226;2022-12-07T00:50:56;15.20;;;8.57;;
76021;SDS011;64718;52.124;6.226;2022-12-07T00:53:23;17.60;;;8.32;;
76021;SDS011;64718;52.124;6.226;2022-12-07T00:55:49;15.93;;;6.43;;
76021;SDS011;64718;52.124;6.226;2022-12-07T00:58:17;16.27;;;8.40;;
76021;SDS011;64718;52.124;6.226;2022-12-07T01:00:44;15.43;;;8.05;;
76021;SDS011;64718;52.124;6.226;2022-12-07T01:03:12;11.63;;;6.85;;
76021;SDS011;64718;52.124;6.226;2022-12-07T01:05:40;13.13;;;7.07;;
76021;SDS011;64718;52.124;6.226;2022-12-07T01:08:15;10.70;;;6.00;;
76021;SDS011;64718;52.124;6.226;2022-12-07T01:10:42;11.43;;;4.63;;
76021;SDS011;64718;52.124;6.226;2022-12-07T01:13:08;11.07;;;6.28;;
76021;SDS011;64718;52.124;6.226;2022-12-07T01:15:38;12.95;;;6.18;;
76021;SDS011;64718;52.124;6.226;2022-12-07T01:18:05;15.48;;;6.25;;
76021;SDS011;64718;52.124;6.226;2022-12-07T01:20:33;15.80;;;7.38;;
76021;SDS011;64718;52.124;6.226;2022-12-07T01:22:59;16.50;;;7.35;;
76021;SDS011;64718;52.124;6.226;2022-12-07T01:25:26;14.65;;;7.03;;
76021;SDS011;64718;52.124;6.226;2022-12-07T01:27:52;15.73;;;6.93;;
76021;SDS011;64718;52.124;6.226;2022-12-07T01:30:19;14.02;;;6.70;;
76021;SDS011;64718;52.124;6.226;2022-12-07T01:32:46;14.18;;;7.30;;
76021;SDS011;64718;52.124;6.226;2022-12-07T01:35:12;16.23;;;7.95;;
76021;SDS011;64718;52.124;6.226;2022-12-07T01:37:40;16.05;;;7.40;;
76021;SDS011;64718;52.124;6.226;2022-12-07T01:40:07;19.50;;;7.20;;
76021;SDS011;64718;52.124;6.226;2022-12-07T01:42:34;11.88;;;6.40;;
76021;SDS011;64718;52.124;6.226;2022-12-07T01:48:10;11.88;;;6.55;;
76021;SDS011;64718;52.124;6.226;2022-12-07T01:50:40;14.43;;;6.85;;
76021;SDS011;64718;52.124;6.226;2022-12-07T01:53:10;14.93;;;6.75;;
76021;SDS011;64718;52.124;6.226;2022-12-07T01:55:40;15.20;;;7.90;;
76021;SDS011;64718;52.124;6.226;2022-12-07T01:58:09;17.13;;;8.32;;
76021;SDS011;64718;52.124;6.226;2022-12-07T02:00:37;15.60;;;7.30;;
76021;SDS011;64718;52.124;6.226;2022-12-07T02:03:05;12.27;;;7.40;;
76021;SDS011;64718;52.124;6.226;2022-12-07T02:05:35;12.80;;;6.28;;
76021;SDS011;64718;52.124;6.226;2022-12-07T02:08:04;15.57;;;7.00;;
76021;SDS011;64718;52.124;6.226;2022-12-07T02:10:32;10.27;;;6.07;;
76021;SDS011;64718;52.124;6.226;2022-12-07T02:13:00;12.48;;;6.72;;
76021;SDS011;64718;52.124;6.226;2022-12-07T02:15:33;17.10;;;6.47;;
76021;SDS011;64718;52.124;6.226;2022-12-07T02:18:09;13.13;;;6.70;;
76021;SDS011;64718;52.124;6.226;2022-12-07T02:20:42;12.30;;;6.75;;
76021;SDS011;64718;52.124;6.226;2022-12-07T02:23:40;11.27;;;5.80;;
76021;SDS011;64718;52.124;6.226;2022-12-07T02:26:25;15.30;;;6.97;;
76021;SDS011;64718;52.124;6.226;2022-12-07T02:29:16;13.23;;;6.28;;
76021;SDS011;64718;52.124;6.226;2022-12-07T02:31:49;16.00;;;6.32;;
76021;SDS011;64718;52.124;6.226;2022-12-07T02:34:25;20.70;;;7.07;;
76021;SDS011;64718;52.124;6.226;2022-12-07T02:36:57;17.27;;;6.63;;
76021;SDS011;64718;52.124;6.226;2022-12-07T02:39:29;16.35;;;6.65;;
76021;SDS011;64718;52.124;6.226;2022-12-07T02:42:01;16.80;;;6.60;;
76021;SDS011;64718;52.124;6.226;2022-12-07T02:44:35;10.82;;;6.50;;
76021;SDS011;64718;52.124;6.226;2022-12-07T02:47:03;10.77;;;6.38;;
76021;SDS011;64718;52.124;6.226;2022-12-07T02:49:33;14.35;;;6.93;;
76021;SDS011;64718;52.124;6.226;2022-12-07T02:52:01;13.10;;;5.68;;
76021;SDS011;64718;52.124;6.226;2022-12-07T02:54:28;10.38;;;5.45;;
76021;SDS011;64718;52.124;6.226;2022-12-07T02:56:56;12.25;;;5.40;;
76021;SDS011;64718;52.124;6.226;2022-12-07T02:59:32;8.55;;;4.38;;
76021;SDS011;64718;52.124;6.226;2022-12-07T03:02:15;8.15;;;4.15;;
76021;SDS011;64718;52.124;6.226;2022-12-07T03:04:53;8.82;;;5.13;;
76021;SDS011;64718;52.124;6.226;2022-12-07T03:07:37;11.75;;;5.03;;
76021;SDS011;64718;52.124;6.226;2022-12-07T03:10:13;12.27;;;5.30;;
76021;SDS011;64718;52.124;6.226;2022-12-07T03:12:46;12.25;;;5.00;;
76021;SDS011;64718;52.124;6.226;2022-12-07T03:15:25;15.68;;;4.43;;
76021;SDS011;64718;52.124;6.226;2022-12-07T03:17:56;11.95;;;5.40;;
76021;SDS011;64718;52.124;6.226;2022-12-07T03:20:26;12.10;;;5.22;;
76021;SDS011;64718;52.124;6.226;2022-12-07T03:22:55;10.82;;;4.65;;
76021;SDS011;64718;52.124;6.226;2022-12-07T03:25:23;9.48;;;5.13;;
76021;SDS011;64718;52.124;6.226;2022-12-07T03:27:53;12.70;;;4.82;;
76021;SDS011;64718;52.124;6.226;2022-12-07T03:30:26;19.55;;;5.75;;
76021;SDS011;64718;52.124;6.226;2022-12-07T03:32:56;14.20;;;5.50;;
76021;SDS011;64718;52.124;6.226;2022-12-07T03:35:28;12.32;;;4.72;;
76021;SDS011;64718;52.124;6.226;2022-12-07T03:38:02;14.98;;;5.55;;
76021;SDS011;64718;52.124;6.226;2022-12-07T03:40:39;11.25;;;4.60;;
76021;SDS011;64718;52.124;6.226;2022-12-07T03:43:10;9.25;;;4.65;;
76021;SDS011;64718;52.124;6.226;2022-12-07T03:45:40;10.95;;;4.95;;
76021;SDS011;64718;52.124;6.226;2022-12-07T03:48:08;8.32;;;4.13;;
76021;SDS011;64718;52.124;6.226;2022-12-07T03:50:49;9.05;;;4.20;;
76021;SDS011;64718;52.124;6.226;2022-12-07T03:53:19;10.02;;;4.32;;
76021;SDS011;64718;52.124;6.226;2022-12-07T03:55:49;11.57;;;3.83;;
76021;SDS011;64718;52.124;6.226;2022-12-07T03:58:18;11.50;;;3.90;;
76021;SDS011;64718;52.124;6.226;2022-12-07T04:00:47;6.75;;;3.25;;
76021;SDS011;64718;52.124;6.226;2022-12-07T04:03:15;7.35;;;3.28;;
76021;SDS011;64718;52.124;6.226;2022-12-07T04:05:42;8.30;;;3.17;;
76021;SDS011;64718;52.124;6.226;2022-12-07T04:08:10;7.95;;;3.17;;
76021;SDS011;64718;52.124;6.226;2022-12-07T04:10:36;7.03;;;3.10;;
76021;SDS011;64718;52.124;6.226;2022-12-07T04:13:03;6.78;;;3.25;;
76021;SDS011;64718;52.124;6.226;2022-12-07T04:15:30;9.25;;;3.42;;
76021;SDS011;64718;52.124;6.226;2022-12-07T04:17:58;7.45;;;3.60;;
76021;SDS011;64718;52.124;6.226;2022-12-07T04:20:24;9.02;;;3.13;;
76021;SDS011;64718;52.124;6.226;2022-12-07T04:22:51;6.40;;;3.15;;
76021;SDS011;64718;52.124;6.226;2022-12-07T04:25:17;9.10;;;3.75;;
76021;SDS011;64718;52.124;6.226;2022-12-07T04:27:44;8.05;;;3.65;;
76021;SDS011;64718;52.124;6.226;2022-12-07T04:30:10;8.75;;;3.45;;
76021;SDS011;64718;52.124;6.226;2022-12-07T04:32:37;6.53;;;3.10;;
76021;SDS011;64718;52.124;6.226;2022-12-07T04:35:06;10.15;;;3.33;;
76021;SDS011;64718;52.124;6.226;2022-12-07T04:37:33;7.93;;;3.40;;
76021;SDS011;64718;52.124;6.226;2022-12-07T04:39:59;7.53;;;3.58;;
76021;SDS011;64718;52.124;6.226;2022-12-07T04:42:26;7.78;;;2.60;;
76021;SDS011;64718;52.124;6.226;2022-12-07T04:44:53;4.35;;;2.45;;
76021;SDS011;64718;52.124;6.226;2022-12-07T04:47:19;5.43;;;2.33;;
76021;SDS011;64718;52.124;6.226;2022-12-07T04:49:46;8.77;;;3.88;;
76021;SDS011;64718;52.124;6.226;2022-12-07T04:52:14;8.52;;;3.60;;
76021;SDS011;64718;52.124;6.226;2022-12-07T04:54:40;10.63;;;4.63;;
76021;SDS011;64718;52.124;6.226;2022-12-07T04:57:07;9.02;;;3.42;;
76021;SDS011;64718;52.124;6.226;2022-12-07T04:59:33;7.90;;;3.45;;
76021;SDS011;64718;52.124;6.226;2022-12-07T05:02:00;8.63;;;2.95;;
76021;SDS011;64718;52.124;6.226;2022-12-07T05:04:26;10.20;;;4.05;;
76021;SDS011;64718;52.124;6.226;2022-12-07T05:06:53;12.50;;;4.97;;
76021;SDS011;64718;52.124;6.226;2022-12-07T05:09:21;10.70;;;4.63;;
76021;SDS011;64718;52.124;6.226;2022-12-07T05:11:47;12.90;;;4.80;;
76021;SDS011;64718;52.124;6.226;2022-12-07T05:14:17;15.77;;;6.00;;
76021;SDS011;64718;52.124;6.226;2022-12-07T05:16:46;11.93;;;4.63;;
76021;SDS011;64718;52.124;6.226;2022-12-07T05:19:14;11.73;;;4.90;;
76021;SDS011;64718;52.124;6.226;2022-12-07T05:21:41;9.00;;;4.65;;
76021;SDS011;64718;52.124;6.226;2022-12-07T05:24:08;14.88;;;5.65;;
76021;SDS011;64718;52.124;6.226;2022-12-07T05:26:38;10.57;;;4.93;;
76021;SDS011;64718;52.124;6.226;2022-12-07T05:29:05;13.82;;;4.50;;
76021;SDS011;64718;52.124;6.226;2022-12-07T05:31:32;10.65;;;5.35;;
76021;SDS011;64718;52.124;6.226;2022-12-07T05:33:59;10.40;;;4.72;;
76021;SDS011;64718;52.124;6.226;2022-12-07T05:36:26;8.70;;;4.60;;
76021;SDS011;64718;52.124;6.226;2022-12-07T05:38:56;7.68;;;3.95;;
76021;SDS011;64718;52.124;6.226;2022-12-07T05:41:22;11.50;;;4.10;;
76021;SDS011;64718;52.124;6.226;2022-12-07T05:44:08;8.63;;;4.93;;
76021;SDS011;64718;52.124;6.226;2022-12-07T05:46:34;7.38;;;4.50;;
76021;SDS011;64718;52.124;6.226;2022-12-07T05:49:01;13.98;;;4.65;;
76021;SDS011;64718;52.124;6.226;2022-12-07T05:51:28;6.68;;;3.75;;
76021;SDS011;64718;52.124;6.226;2022-12-07T05:53:55;9.88;;;2.72;;
76021;SDS011;64718;52.124;6.226;2022-12-07T05:56:21;13.98;;;4.05;;
76021;SDS011;64718;52.124;6.226;2022-12-07T05:58:48;7.25;;;4.85;;
76021;SDS011;64718;52.124;6.226;2022-12-07T06:01:33;8.45;;;3.50;;
76021;SDS011;64718;52.124;6.226;2022-12-07T06:04:00;11.50;;;4.10;;
76021;SDS011;64718;52.124;6.226;2022-12-07T06:06:26;8.48;;;2.47;;
76021;SDS011;64718;52.124;6.226;2022-12-07T06:08:53;9.40;;;3.75;;
76021;SDS011;64718;52.124;6.226;2022-12-07T06:11:19;7.57;;;3.75;;
76021;SDS011;64718;52.124;6.226;2022-12-07T06:14:03;8.93;;;4.00;;
76021;SDS011;64718;52.124;6.226;2022-12-07T06:16:30;8.63;;;4.65;;
76021;SDS011;64718;52.124;6.226;2022-12-07T06:18:58;8.77;;;4.10;;
76021;SDS011;64718;52.124;6.226;2022-12-07T06:21:24;5.07;;;3.63;;
76021;SDS011;64718;52.124;6.226;2022-12-07T06:23:51;12.13;;;4.07;;
76021;SDS011;64718;52.124;6.226;2022-12-07T06:26:18;8.27;;;3.38;;
76021;SDS011;64718;52.124;6.226;2022-12-07T06:28:45;7.35;;;3.92;;
76021;SDS011;64718;52.124;6.226;2022-12-07T06:31:11;9.40;;;4.10;;
76021;SDS011;64718;52.124;6.226;2022-12-07T06:33:38;6.43;;;3.30;;
76021;SDS011;64718;52.124;6.226;2022-12-07T06:36:06;7.50;;;3.53;;
76021;SDS011;64718;52.124;6.226;2022-12-07T06:38:33;11.50;;;3.88;;
76021;SDS011;64718;52.124;6.226;2022-12-07T06:40:59;8.48;;;3.92;;
76021;SDS011;64718;52.124;6.226;2022-12-07T06:43:26;8.25;;;3.85;;
76021;SDS011;64718;52.124;6.226;2022-12-07T06:45:53;7.63;;;3.35;;
76021;SDS011;64718;52.124;6.226;2022-12-07T06:48:19;9.30;;;3.22;;
76021;SDS011;64718;52.124;6.226;2022-12-07T06:50:46;7.32;;;4.68;;
76021;SDS011;64718;52.124;6.226;2022-12-07T06:53:15;11.35;;;4.07;;
76021;SDS011;64718;52.124;6.226;2022-12-07T06:55:41;9.73;;;3.50;;
76021;SDS011;64718;52.124;6.226;2022-12-07T06:58:08;6.45;;;3.55;;
76021;SDS011;64718;52.124;6.226;2022-12-07T07:00:34;10.05;;;4.80;;
76021;SDS011;64718;52.124;6.226;2022-12-07T07:03:01;8.98;;;4.03;;
76021;SDS011;64718;52.124;6.226;2022-12-07T07:05:27;9.18;;;4.65;;
76021;SDS011;64718;52.124;6.226;2022-12-07T07:07:54;10.45;;;4.47;;
76021;SDS011;64718;52.124;6.226;2022-12-07T07:10:22;7.97;;;3.65;;
76021;SDS011;64718;52.124;6.226;2022-12-07T07:12:48;6.38;;;3.50;;
76021;SDS011;64718;52.124;6.226;2022-12-07T07:15:15;13.82;;;4.22;;
76021;SDS011;64718;52.124;6.226;2022-12-07T07:17:42;9.15;;;4.45;;
76021;SDS011;64718;52.124;6.226;2022-12-07T07:20:09;13.35;;;5.38;;
76021;SDS011;64718;52.124;6.226;2022-12-07T07:22:36;11.63;;;5.07;;
76021;SDS011;64718;52.124;6.226;2022-12-07T07:25:03;8.80;;;4.75;;
76021;SDS011;64718;52.124;6.226;2022-12-07T07:27:31;11.02;;;4.30;;
76021;SDS011;64718;52.124;6.226;2022-12-07T07:29:58;10.90;;;4.90;;
76021;SDS011;64718;52.124;6.226;2022-12-07T07:32:24;9.32;;;4.20;;
76021;SDS011;64718;52.124;6.226;2022-12-07T07:34:51;8.43;;;3.97;;
76021;SDS011;64718;52.124;6.226;2022-12-07T07:37:17;9.43;;;3.15;;
76021;SDS011;64718;52.124;6.226;2022-12-07T07:39:44;10.02;;;4.60;;
76021;SDS011;64718;52.124;6.226;2022-12-07T07:42:10;6.78;;;4.03;;
76021;SDS011;64718;52.124;6.226;2022-12-07T07:44:38;10.02;;;4.18;;
76021;SDS011;64718;52.124;6.226;2022-12-07T07:47:05;9.63;;;3.90;;
76021;SDS011;64718;52.124;6.226;2022-12-07T07:49:31;9.98;;;4.47;;
76021;SDS011;64718;52.124;6.226;2022-12-07T07:51:58;9.40;;;4.03;;
76021;SDS011;64718;52.124;6.226;2022-12-07T07:54:24;10.63;;;3.45;;
76021;SDS011;64718;52.124;6.226;2022-12-07T07:56:51;13.27;;;4.40;;
76021;SDS011;64718;52.124;6.226;2022-12-07T07:59:18;8.07;;;4.00;;
76021;SDS011;64718;52.124;6.226;2022-12-07T08:01:46;11.70;;;4.57;;
76021;SDS011;64718;52.124;6.226;2022-12-07T08:04:13;9.70;;;4.97;;
76021;SDS011;64718;52.124;6.226;2022-12-07T08:06:39;9.25;;;4.47;;
76021;SDS011;64718;52.124;6.226;2022-12-07T08:09:07;9.02;;;4.63;;
76021;SDS011;64718;52.124;6.226;2022-12-07T08:11:34;11.25;;;4.38;;
76021;SDS011;64718;52.124;6.226;2022-12-07T08:14:01;8.20;;;4.05;;
76021;SDS011;64718;52.124;6.226;2022-12-07T08:16:27;12.65;;;5.20;;
76021;SDS011;64718;52.124;6.226;2022-12-07T08:18:55;12.27;;;4.80;;
76021;SDS011;64718;52.124;6.226;2022-12-07T08:21:22;9.77;;;3.72;;
76021;SDS011;64718;52.124;6.226;2022-12-07T08:23:49;9.85;;;3.55;;
76021;SDS011;64718;52.124;6.226;2022-12-07T08:26:15;7.97;;;3.88;;
76021;SDS011;64718;52.124;6.226;2022-12-07T08:28:43;7.68;;;3.72;;
76021;SDS011;64718;52.124;6.226;2022-12-07T08:31:11;5.60;;;2.70;;
76021;SDS011;64718;52.124;6.226;2022-12-07T08:33:39;6.50;;;3.42;;
76021;SDS011;64718;52.124;6.226;2022-12-07T08:36:10;8.80;;;4.43;;
76021;SDS011;64718;52.124;6.226;2022-12-07T08:38:38;11.27;;;3.15;;
76021;SDS011;64718;52.124;6.226;2022-12-07T08:41:07;6.10;;;1.95;;
76021;SDS011;64718;52.124;6.226;2022-12-07T08:43:34;8.18;;;2.88;;
76021;SDS011;64718;52.124;6.226;2022-12-07T08:46:03;6.53;;;3.20;;
76021;SDS011;64718;52.124;6.226;2022-12-07T08:48:35;7.97;;;2.88;;
76021;SDS011;64718;52.124;6.226;2022-12-07T08:51:05;7.63;;;3.35;;
76021;SDS011;64718;52.124;6.226;2022-12-07T08:53:33;6.47;;;2.55;;
76021;SDS011;64718;52.124;6.226;2022-12-07T08:56:01;5.35;;;1.83;;
76021;SDS011;64718;52.124;6.226;2022-12-07T08:58:28;9.05;;;3.20;;
76021;SDS011;64718;52.124;6.226;2022-12-07T09:00:54;5.68;;;2.38;;
76021;SDS011;64718;52.124;6.226;2022-12-07T09:03:21;4.85;;;2.88;;
76021;SDS011;64718;52.124;6.226;2022-12-07T09:05:47;6.82;;;2.35;;
76021;SDS011;64718;52.124;6.226;2022-12-07T09:08:14;3.33;;;2.28;;
76021;SDS011;64718;52.124;6.226;2022-12-07T09:10:43;3.70;;;1.30;;
76021;SDS011;64718;52.124;6.226;2022-12-07T09:13:09;8.02;;;2.47;;
76021;SDS011;64718;52.124;6.226;2022-12-07T09:15:36;3.80;;;2.00;;
76021;SDS011;64718;52.124;6.226;2022-12-07T09:18:02;3.88;;;2.65;;
76021;SDS011;64718;52.124;6.226;2022-12-07T09:20:29;8.43;;;1.55;;
76021;SDS011;64718;52.124;6.226;2022-12-07T09:22:55;3.65;;;1.95;;
76021;SDS011;64718;52.124;6.226;2022-12-07T09:25:22;5.43;;;2.17;;
76021;SDS011;64718;52.124;6.226;2022-12-07T09:27:53;5.45;;;2.42;;
76021;SDS011;64718;52.124;6.226;2022-12-07T09:30:22;7.35;;;2.65;;
76021;SDS011;64718;52.124;6.226;2022-12-07T09:32:48;6.75;;;2.08;;
76021;SDS011;64718;52.124;6.226;2022-12-07T09:35:15;7.00;;;2.35;;
76021;SDS011;64718;52.124;6.226;2022-12-07T09:37:41;9.75;;;2.42;;
76021;SDS011;64718;52.124;6.226;2022-12-07T09:40:09;5.60;;;2.38;;
76021;SDS011;64718;52.124;6.226;2022-12-07T09:42:37;4.18;;;1.92;;
76021;SDS011;64718;52.124;6.226;2022-12-07T09:45:10;3.70;;;2.00;;
76021;SDS011;64718;52.124;6.226;2022-12-07T09:47:40;10.25;;;1.95;;
76021;SDS011;64718;52.124;6.226;2022-12-07T09:50:10;4.22;;;1.40;;
76021;SDS011;64718;52.124;6.226;2022-12-07T09:52:39;2.70;;;1.45;;
76021;SDS011;64718;52.124;6.226;2022-12-07T09:55:11;6.68;;;2.30;;
76021;SDS011;64718;52.124;6.226;2022-12-07T09:57:39;4.93;;;1.80;;
76021;SDS011;64718;52.124;6.226;2022-12-07T10:00:10;5.43;;;2.10;;
76021;SDS011;64718;52.124;6.226;2022-12-07T10:02:40;3.40;;;1.65;;
76021;SDS011;64718;52.124;6.226;2022-12-07T10:05:10;2.38;;;0.63;;
76021;SDS011;64718;52.124;6.226;2022-12-07T10:07:40;5.82;;;2.10;;
76021;SDS011;64718;52.124;6.226;2022-12-07T10:10:12;6.40;;;2.03;;
76021;SDS011;64718;52.124;6.226;2022-12-07T10:12:52;7.15;;;1.88;;
76021;SDS011;64718;52.124;6.226;2022-12-07T10:15:22;4.18;;;1.63;;
76021;SDS011;64718;52.124;6.226;2022-12-07T10:17:49;6.30;;;2.05;;
76021;SDS011;64718;52.124;6.226;2022-12-07T10:20:19;3.65;;;2.42;;
76021;SDS011;64718;52.124;6.226;2022-12-07T10:22:55;5.70;;;2.28;;
76021;SDS011;64718;52.124;6.226;2022-12-07T10:25:28;4.75;;;2.03;;
76021;SDS011;64718;52.124;6.226;2022-12-07T10:27:58;8.73;;;2.00;;
76021;SDS011;64718;52.124;6.226;2022-12-07T10:32:54;5.28;;;1.77;;
76021;SDS011;64718;52.124;6.226;2022-12-07T10:35:22;5.55;;;2.05;;
76021;SDS011;64718;52.124;6.226;2022-12-07T10:37:51;8.70;;;2.67;;
76021;SDS011;64718;52.124;6.226;2022-12-07T10:40:24;3.45;;;1.73;;
76021;SDS011;64718;52.124;6.226;2022-12-07T10:43:07;6.45;;;1.80;;
76021;SDS011;64718;52.124;6.226;2022-12-07T10:45:57;5.18;;;2.30;;
76021;SDS011;64718;52.124;6.226;2022-12-07T10:48:37;5.03;;;2.63;;
76021;SDS011;64718;52.124;6.226;2022-12-07T10:51:14;3.13;;;1.70;;
76021;SDS011;64718;52.124;6.226;2022-12-07T10:53:52;5.18;;;1.70;;
76021;SDS011;64718;52.124;6.226;2022-12-07T10:56:33;4.30;;;2.58;;
76021;SDS011;64718;52.124;6.226;2022-12-07T10:59:18;4.05;;;1.48;;
76021;SDS011;64718;52.124;6.226;2022-12-07T11:01:59;6.80;;;1.83;;
76021;SDS011;64718;52.124;6.226;2022-12-07T11:04:39;1.73;;;1.58;;
76021;SDS011;64718;52.124;6.226;2022-12-07T11:07:18;6.30;;;2.30;;
76021;SDS011;64718;52.124;6.226;2022-12-07T11:09:59;4.88;;;0.90;;
76021;SDS011;64718;52.124;6.226;2022-12-07T11:12:36;4.43;;;1.98;;
76021;SDS011;64718;52.124;6.226;2022-12-07T11:15:16;4.20;;;1.00;;
76021;SDS011;64718;52.124;6.226;2022-12-07T11:17:51;6.25;;;1.42;;
76021;SDS011;64718;52.124;6.226;2022-12-07T11:20:29;3.85;;;2.35;;
76021;SDS011;64718;52.124;6.226;2022-12-07T11:23:09;3.65;;;1.40;;
76021;SDS011;64718;52.124;6.226;2022-12-07T11:25:47;4.03;;;1.35;;
76021;SDS011;64718;52.124;6.226;2022-12-07T11:28:22;5.50;;;1.65;;
76021;SDS011;64718;52.124;6.226;2022-12-07T11:31:05;4.05;;;2.28;;
76021;SDS011;64718;52.124;6.226;2022-12-07T11:33:41;7.07;;;1.90;;
76021;SDS011;64718;52.124;6.226;2022-12-07T11:36:16;3.00;;;1.23;;
76021;SDS011;64718;52.124;6.226;2022-12-07T11:38:57;7.38;;;1.90;;
76021;SDS011;64718;52.124;6.226;2022-12-07T11:41:27;3.97;;;1.83;;
76021;SDS011;64718;52.124;6.226;2022-12-07T11:43:58;3.75;;;1.60;;
76021;SDS011;64718;52.124;6.226;2022-12-07T11:46:29;3.25;;;2.95;;
76021;SDS011;64718;52.124;6.226;2022-12-07T11:49:12;5.90;;;1.80;;
76021;SDS011;64718;52.124;6.226;2022-12-07T11:51:43;3.95;;;1.15;;
76021;SDS011;64718;52.124;6.226;2022-12-07T11:54:14;4.63;;;1.88;;
76021;SDS011;64718;52.124;6.226;2022-12-07T11:56:45;2.28;;;0.90;;
76021;SDS011;64718;52.124;6.226;2022-12-07T11:59:17;4.85;;;2.03;;
76021;SDS011;64718;52.124;6.226;2022-12-07T12:01:52;7.40;;;1.85;;
76021;SDS011;64718;52.124;6.226;2022-12-07T12:04:29;2.80;;;1.50;;
76021;SDS011;64718;52.124;6.226;2022-12-07T12:07:00;3.85;;;2.00;;
76021;SDS011;64718;52.124;6.226;2022-12-07T12:09:28;5.95;;;2.50;;
76021;SDS011;64718;52.124;6.226;2022-12-07T12:12:12;4.75;;;1.83;;
76021;SDS011;64718;52.124;6.226;2022-12-07T12:15:03;5.15;;;2.58;;
76021;SDS011;64718;52.124;6.226;2022-12-07T12:17:57;6.65;;;3.17;;
76021;SDS011;64718;52.124;6.226;2022-12-07T12:20:39;8.27;;;2.15;;
76021;SDS011;64718;52.124;6.226;2022-12-07T12:23:10;3.20;;;1.75;;
76021;SDS011;64718;52.124;6.226;2022-12-07T12:25:42;3.35;;;1.95;;
76021;SDS011;64718;52.124;6.226;2022-12-07T12:28:19;6.55;;;2.30;;
76021;SDS011;64718;52.124;6.226;2022-12-07T12:31:04;4.68;;;1.85;;
76021;SDS011;64718;52.124;6.226;2022-12-07T12:33:33;8.25;;;2.35;;
76021;SDS011;64718;52.124;6.226;2022-12-07T12:36:19;7.78;;;1.27;;
76021;SDS011;64718;52.124;6.226;2022-12-07T12:38:49;7.53;;;2.00;;
76021;SDS011;64718;52.124;6.226;2022-12-07T12:44:38;5.85;;;2.03;;
76021;SDS011;64718;52.124;6.226;2022-12-07T12:47:37;4.93;;;1.60;;
76021;SDS011;64718;52.124;6.226;2022-12-07T12:50:17;2.55;;;1.48;;
76021;SDS011;64718;52.124;6.226;2022-12-07T12:52:49;5.07;;;1.67;;
76021;SDS011;64718;52.124;6.226;2022-12-07T12:55:22;5.05;;;1.83;;
76021;SDS011;64718;52.124;6.226;2022-12-07T13:04:28;6.22;;;1.52;;
76021;SDS011;64718;52.124;6.226;2022-12-07T13:07:03;2.38;;;1.23;;
76021;SDS011;64718;52.124;6.226;2022-12-07T13:09:33;3.75;;;1.73;;
76021;SDS011;64718;52.124;6.226;2022-12-07T13:12:02;4.88;;;1.42;;
76021;SDS011;64718;52.124;6.226;2022-12-07T13:23:25;4.43;;;0.85;;
76021;SDS011;64718;52.124;6.226;2022-12-07T13:25:57;3.05;;;1.33;;
76021;SDS011;64718;52.124;6.226;2022-12-07T13:28:32;2.45;;;1.60;;
76021;SDS011;64718;52.124;6.226;2022-12-07T13:33:56;2.80;;;0.95;;
76021;SDS011;64718;52.124;6.226;2022-12-07T13:36:24;8.77;;;1.42;;
76021;SDS011;64718;52.124;6.226;2022-12-07T13:38:53;2.30;;;1.20;;
76021;SDS011;64718;52.124;6.226;2022-12-07T13:41:23;5.95;;;1.30;;
76021;SDS011;64718;52.124;6.226;2022-12-07T13:43:59;2.22;;;1.10;;
76021;SDS011;64718;52.124;6.226;2022-12-07T13:46:31;3.03;;;0.82;;
76021;SDS011;64718;52.124;6.226;2022-12-07T13:49:15;1.88;;;0.80;;
76021;SDS011;64718;52.124;6.226;2022-12-07T13:51:47;3.28;;;1.10;;
76021;SDS011;64718;52.124;6.226;2022-12-07T13:54:15;5.05;;;1.02;;
76021;SDS011;64718;52.124;6.226;2022-12-07T13:56:43;4.20;;;1.90;;
76021;SDS011;64718;52.124;6.226;2022-12-07T13:59:14;7.07;;;1.88;;
76021;SDS011;64718;52.124;6.226;2022-12-07T14:01:44;3.25;;;1.40;;
76021;SDS011;64718;52.124;6.226;2022-12-07T14:04:29;4.22;;;1.45;;
76021;SDS011;64718;52.124;6.226;2022-12-07T14:06:58;2.58;;;2.08;;
76021;SDS011;64718;52.124;6.226;2022-12-07T14:09:26;5.03;;;1.67;;
76021;SDS011;64718;52.124;6.226;2022-12-07T14:11:55;2.22;;;1.25;;
76021;SDS011;64718;52.124;6.226;2022-12-07T14:14:24;8.00;;;1.10;;
76021;SDS011;64718;52.124;6.226;2022-12-07T14:16:59;4.55;;;1.63;;
76021;SDS011;64718;52.124;6.226;2022-12-07T14:19:42;3.63;;;0.98;;
76021;SDS011;64718;52.124;6.226;2022-12-07T14:22:28;5.47;;;1.02;;
76021;SDS011;64718;52.124;6.226;2022-12-07T14:27:52;2.47;;;1.45;;
76021;SDS011;64718;52.124;6.226;2022-12-07T14:30:21;3.05;;;0.90;;
76021;SDS011;64718;52.124;6.226;2022-12-07T14:32:50;2.90;;;1.73;;
76021;SDS011;64718;52.124;6.226;2022-12-07T14:35:19;2.75;;;0.88;;
76021;SDS011;64718;52.124;6.226;2022-12-07T14:37:47;5.30;;;1.25;;
76021;SDS011;64718;52.124;6.226;2022-12-07T14:40:15;3.50;;;1.35;;
76021;SDS011;64718;52.124;6.226;2022-12-07T14:45:14;6.78;;;1.33;;
76021;SDS011;64718;52.124;6.226;2022-12-07T14:47:42;3.80;;;1.08;;
76021;SDS011;64718;52.124;6.226;2022-12-07T14:50:11;3.47;;;1.10;;
76021;SDS011;64718;52.124;6.226;2022-12-07T14:52:38;5.30;;;1.40;;
76021;SDS011;64718;52.124;6.226;2022-12-07T14:55:07;5.00;;;1.33;;
76021;SDS011;64718;52.124;6.226;2022-12-07T14:57:40;5.25;;;1.35;;
76021;SDS011;64718;52.124;6.226;2022-12-07T15:00:08;2.45;;;0.95;;
76021;SDS011;64718;52.124;6.226;2022-12-07T15:02:40;3.08;;;1.38;;
76021;SDS011;64718;52.124;6.226;2022-12-07T15:05:14;3.75;;;0.40;;
76021;SDS011;64718;52.124;6.226;2022-12-07T15:07:41;3.95;;;0.45;;
76021;SDS011;64718;52.124;6.226;2022-12-07T15:10:12;2.15;;;0.40;;
76021;SDS011;64718;52.124;6.226;2022-12-07T15:12:42;2.42;;;0.30;;
76021;SDS011;64718;52.124;6.226;2022-12-07T15:15:09;2.15;;;0.43;;
76021;SDS011;64718;52.124;6.226;2022-12-07T15:17:36;5.53;;;0.50;;
76021;SDS011;64718;52.124;6.226;2022-12-07T15:20:03;1.58;;;0.40;;
76021;SDS011;64718;52.124;6.226;2022-12-07T15:22:32;2.28;;;0.38;;
76021;SDS011;64718;52.124;6.226;2022-12-07T15:24:58;3.08;;;0.38;;
76021;SDS011;64718;52.124;6.226;2022-12-07T15:27:25;0.93;;;0.20;;
76021;SDS011;64718;52.124;6.226;2022-12-07T15:29:51;0.98;;;0.52;;
76021;SDS011;64718;52.124;6.226;2022-12-07T15:32:18;3.42;;;0.98;;
76021;SDS011;64718;52.124;6.226;2022-12-07T15:34:45;2.92;;;0.40;;
76021;SDS011;64718;52.124;6.226;2022-12-07T15:37:11;2.78;;;0.93;;